Time;durP1;ratioP1;P1;durP2;ratioP2;P2;SDS_P1;SDS_P2;PMS_P1;PMS_P2;Temp;Humidity;BMP_temperature;BMP_pressure;BME280_temperature;BME280_humidity;BME280_pressure;Samples;Min_cycle;Max_cycle;Signal;HPM_P1;HPM_P2
2023/04/29 00:00:44;;;;;;;28.52;15.98;;;;;;;13.20;66.87;101680.63;4979496;28;20489;-41
2023/04/29 00:03:09;;;;;;;30.27;16.30;;;;;;;13.48;65.82;101676.66;4983243;28;20054;-41
2023/04/29 00:05:35;;;;;;;28.45;16.48;;;;;;;13.30;66.04;101677.28;4980062;28;20061;-40
2023/04/29 00:08:00;;;;;;;30.80;16.75;;;;;;;13.30;65.98;101684.25;4984813;28;20034;-42
2023/04/29 00:10:25;;;;;;;31.08;17.15;;;;;;;13.21;65.52;101686.75;4979705;28;20030;-41
2023/04/29 00:12:51;;;;;;;30.00;16.92;;;;;;;13.38;65.71;101693.13;4982727;28;20166;-39
2023/04/29 00:15:16;;;;;;;31.70;17.05;;;;;;;13.65;65.00;101688.28;4982888;28;20041;-40
2023/04/29 00:17:42;;;;;;;31.33;17.45;;;;;;;13.19;65.67;101691.06;4978899;28;20031;-43
2023/04/29 00:20:08;;;;;;;26.20;16.35;;;;;;;13.47;64.98;101684.53;4982486;28;20200;-39
2023/04/29 00:22:33;;;;;;;29.98;17.27;;;;;;;13.38;65.22;101693.13;4978969;28;20121;-41
2023/04/29 00:24:59;;;;;;;28.95;17.17;;;;;;;12.94;66.46;101690.66;4987259;28;20121;-40
2023/04/29 00:27:24;;;;;;;27.55;17.75;;;;;;;13.19;66.49;101698.94;4986945;28;20113;-40
2023/04/29 00:29:49;;;;;;;27.75;16.42;;;;;;;13.36;65.90;101694.81;4989556;28;20030;-45
2023/04/29 00:32:15;;;;;;;27.52;17.02;;;;;;;13.09;65.88;101703.13;4986044;28;20041;-44
2023/04/29 00:34:40;;;;;;;32.10;17.33;;;;;;;13.38;65.46;101704.47;4982994;28;20038;-44
2023/04/29 00:37:05;;;;;;;33.38;17.60;;;;;;;13.22;65.90;101705.13;4986417;28;20034;-41
2023/04/29 00:39:30;;;;;;;28.50;17.77;;;;;;;13.06;66.70;101710.03;4982375;28;20121;-45
2023/04/29 00:41:56;;;;;;;30.42;17.45;;;;;;;13.14;66.61;101711.06;4986278;28;20030;-41
2023/04/29 00:44:21;;;;;;;30.67;18.25;;;;;;;12.77;67.80;101709.53;4983186;28;20125;-39
2023/04/29 00:46:46;;;;;;;28.17;17.63;;;;;;;13.10;67.17;101706.63;4986125;28;20035;-42
2023/04/29 00:49:12;;;;;;;30.17;17.88;;;;;;;13.16;66.92;101714.59;4985650;28;20034;-41
2023/04/29 00:51:39;;;;;;;31.92;18.40;;;;;;;12.95;67.13;101715.97;4982473;28;20088;-45
2023/04/29 00:54:06;;;;;;;28.90;17.70;;;;;;;13.16;66.44;101718.09;4985742;28;20092;-40
2023/04/29 00:56:34;;;;;;;27.88;15.90;;;;;;;13.28;66.61;101713.06;4982431;28;20045;-41
2023/04/29 00:59:01;;;;;;;28.90;16.67;;;;;;;13.20;66.19;101717.28;4985458;28;20065;-40
2023/04/29 01:01:28;;;;;;;27.40;16.75;;;;;;;13.36;65.77;101707.91;4982219;28;20169;-41
2023/04/29 01:03:53;;;;;;;28.35;16.77;;;;;;;13.07;67.14;101719.63;4985668;28;20057;-41
2023/04/29 01:06:48;;;;;;;27.88;16.88;;;;;;;13.05;66.81;101710.91;4985876;28;20486;-41
2023/04/29 01:09:40;;;;;;;27.52;16.77;;;;;;;13.14;66.47;101721.53;4986321;28;20072;-42
2023/04/29 01:12:37;;;;;;;28.25;17.42;;;;;;;13.10;67.02;101723.22;4989773;28;20308;-41
2023/04/29 01:15:05;;;;;;;27.75;16.35;;;;;;;12.99;67.38;101725.63;4988851;28;20190;-43
2023/04/29 01:17:36;;;;;;;27.05;15.63;;;;;;;13.08;67.20;101727.53;4986361;28;20181;-40
2023/04/29 01:20:03;;;;;;;29.50;16.27;;;;;;;12.89;67.37;101725.44;4990035;28;20176;-41
2023/04/29 01:22:28;;;;;;;28.65;16.77;;;;;;;12.81;68.37;101729.66;4986537;28;20114;-38
2023/04/29 01:24:54;;;;;;;29.77;17.17;;;;;;;13.17;67.36;101727.72;4989730;28;20065;-41
2023/04/29 01:27:55;;;;;;;27.77;16.55;;;;;;;13.09;67.19;101724.06;4989904;28;20065;-43
2023/04/29 01:30:32;;;;;;;27.70;16.55;;;;;;;13.10;66.96;101727.56;4985264;28;20043;-36
2023/04/29 01:33:19;;;;;;;27.85;16.60;;;;;;;13.06;67.04;101729.22;4988145;28;20038;-41
2023/04/29 01:36:02;;;;;;;27.23;15.60;;;;;;;13.21;66.99;101726.91;4982960;28;20071;-41
2023/04/29 01:38:51;;;;;;;29.92;15.73;;;;;;;13.09;67.27;101734.53;4981442;28;20113;-44
2023/04/29 01:41:27;;;;;;;26.33;15.75;;;;;;;13.35;67.04;101728.03;4985354;28;20079;-40
2023/04/29 01:43:55;;;;;;;28.05;15.20;;;;;;;12.91;67.92;101728.97;4983389;28;20031;-44
2023/04/29 01:46:21;;;;;;;26.90;15.27;;;;;;;13.35;66.75;101737.63;4981879;28;20117;-41
2023/04/29 01:48:46;;;;;;;28.00;15.85;;;;;;;13.35;66.61;101738.50;4986410;28;20113;-43
2023/04/29 01:51:12;;;;;;;29.92;16.48;;;;;;;13.27;66.60;101734.88;4989773;28;20054;-41
2023/04/29 01:53:39;;;;;;;26.77;14.73;;;;;;;13.54;66.42;101736.16;4985887;28;20428;-41
2023/04/29 01:56:05;;;;;;;29.00;15.88;;;;;;;13.64;65.54;101730.19;4989822;28;20037;-44
2023/04/29 01:58:31;;;;;;;26.95;16.63;;;;;;;13.09;67.40;101738.88;4985473;28;20121;-40
2023/04/29 02:00:56;;;;;;;27.30;15.30;;;;;;;13.38;67.03;101740.25;4988600;28;20090;-40
2023/04/29 02:03:21;;;;;;;26.27;15.38;;;;;;;13.36;66.57;101742.84;4985376;28;20030;-41
2023/04/29 02:05:49;;;;;;;25.33;14.65;;;;;;;13.12;67.16;101752.94;4990615;28;20030;-41
2023/04/29 02:08:14;;;;;;;22.95;14.02;;;;;;;13.53;65.98;101751.00;4988331;28;20492;-40
2023/04/29 02:10:40;;;;;;;25.75;14.88;;;;;;;13.89;64.92;101752.38;4985665;28;22200;-41
2023/04/29 02:13:05;;;;;;;23.65;14.07;;;;;;;13.97;64.66;101753.34;4989214;28;20064;-43
2023/04/29 02:15:30;;;;;;;20.83;13.73;;;;;;;13.61;64.83;101749.34;4981927;28;20171;-40
2023/04/29 02:17:55;;;;;;;25.85;14.10;;;;;;;13.84;64.29;101748.81;4984188;28;20065;-42
2023/04/29 02:20:21;;;;;;;19.67;13.88;;;;;;;13.54;64.62;101763.22;4980770;28;20026;-41
2023/04/29 02:22:52;;;;;;;22.38;13.60;;;;;;;14.00;63.28;101770.00;4984507;28;20041;-42
2023/04/29 02:25:18;;;;;;;20.70;13.13;;;;;;;13.94;62.94;101764.69;4984086;28;20516;-40
2023/04/29 02:27:44;;;;;;;21.00;13.05;;;;;;;13.73;62.96;101760.00;4981527;28;20038;-41
2023/04/29 02:30:10;;;;;;;20.92;12.73;;;;;;;13.71;63.53;101771.34;4987796;28;20037;-40
2023/04/29 02:32:35;;;;;;;23.70;13.50;;;;;;;13.42;64.84;101770.03;4985219;28;20034;-40
2023/04/29 02:35:01;;;;;;;22.80;12.88;;;;;;;13.98;63.30;101773.47;4989086;28;20254;-41
2023/04/29 02:37:27;;;;;;;22.23;13.73;;;;;;;13.85;63.40;101767.16;4984368;28;20085;-45
2023/04/29 02:39:52;;;;;;;20.80;13.13;;;;;;;13.92;63.03;101774.25;4988254;28;20117;-41
2023/04/29 02:42:19;;;;;;;20.65;12.38;;;;;;;14.06;62.34;101779.69;4987904;28;20041;-41
2023/04/29 02:44:44;;;;;;;19.92;12.73;;;;;;;13.95;62.35;101776.94;4983900;28;20034;-39
2023/04/29 02:47:09;;;;;;;19.20;12.90;;;;;;;14.03;62.26;101784.88;4982774;28;20106;-41
2023/04/29 02:49:35;;;;;;;22.25;12.05;;;;;;;13.66;62.71;101794.00;4980517;28;20502;-40
2023/04/29 02:52:00;;;;;;;20.90;12.38;;;;;;;14.02;61.87;101791.91;4985132;28;20041;-42
2023/04/29 02:54:25;;;;;;;22.70;12.95;;;;;;;13.90;61.94;101796.09;4980785;28;20084;-43
2023/04/29 02:56:51;;;;;;;21.90;12.65;;;;;;;14.04;61.96;101794.53;4984552;28;20170;-40
2023/04/29 02:59:16;;;;;;;21.48;13.07;;;;;;;14.01;62.03;101799.75;4983538;28;20034;-39
2023/04/29 03:01:42;;;;;;;22.70;12.90;;;;;;;14.02;62.35;101791.91;4979757;28;20053;-42
2023/04/29 03:04:07;;;;;;;19.98;11.93;;;;;;;13.94;62.75;101801.38;4983151;28;20497;-43
2023/04/29 03:06:33;;;;;;;23.70;13.38;;;;;;;14.18;61.90;101811.34;4980022;28;20509;-41
2023/04/29 03:08:58;;;;;;;21.92;12.60;;;;;;;14.04;62.77;101805.00;4982858;28;20030;-43
2023/04/29 03:11:23;;;;;;;20.50;12.75;;;;;;;14.13;62.14;101816.53;4979801;28;20050;-40
2023/04/29 03:13:49;;;;;;;21.08;12.95;;;;;;;14.09;62.31;101819.06;4983422;28;20062;-43
2023/04/29 03:16:15;;;;;;;23.67;12.98;;;;;;;14.32;61.78;101814.16;4982799;28;20449;-43
2023/04/29 03:18:41;;;;;;;21.80;13.07;;;;;;;14.07;62.13;101811.19;4979420;28;20049;-41
2023/04/29 03:21:07;;;;;;;21.40;12.48;;;;;;;14.29;61.09;101819.34;4982951;28;20027;-41
2023/04/29 03:23:32;;;;;;;22.00;12.30;;;;;;;14.20;61.31;101817.50;4979767;28;20034;-42
2023/04/29 03:25:57;;;;;;;22.48;12.75;;;;;;;14.07;61.15;101807.69;4983113;28;20030;-41
2023/04/29 03:28:23;;;;;;;20.55;12.57;;;;;;;14.02;61.00;101812.88;4979998;28;20031;-45
2023/04/29 03:30:48;;;;;;;20.85;12.23;;;;;;;14.41;60.41;101820.41;4983600;28;20040;-40
2023/04/29 03:33:13;;;;;;;21.02;13.00;;;;;;;14.21;60.85;101817.50;4983599;28;20046;-41
2023/04/29 03:35:39;;;;;;;22.92;12.57;;;;;;;14.42;60.53;101824.81;4980626;28;20054;-40
2023/04/29 03:38:04;;;;;;;21.27;12.98;;;;;;;14.19;61.16;101823.59;4984834;28;20046;-40
2023/04/29 03:40:29;;;;;;;21.00;12.57;;;;;;;14.27;60.93;101821.09;4983188;28;20037;-42
2023/04/29 03:42:55;;;;;;;20.05;12.68;;;;;;;14.31;60.82;101822.88;4989020;28;20034;-40
2023/04/29 03:45:20;;;;;;;22.90;12.75;;;;;;;14.25;61.23;101821.06;4985665;28;20042;-40
2023/04/29 03:47:45;;;;;;;20.27;12.18;;;;;;;14.24;61.27;101827.16;4985916;28;20056;-42
2023/04/29 03:50:11;;;;;;;21.88;12.15;;;;;;;14.49;60.65;101825.78;4984317;28;20049;-40
2023/04/29 03:52:36;;;;;;;22.45;12.68;;;;;;;14.32;61.03;101830.78;4983519;28;20085;-42
2023/04/29 03:55:02;;;;;;;20.48;12.90;;;;;;;14.20;61.77;101833.22;4988954;28;20027;-44
2023/04/29 03:57:27;;;;;;;24.33;12.77;;;;;;;14.32;61.86;101832.50;4985075;28;20037;-41
2023/04/29 03:59:52;;;;;;;23.75;12.50;;;;;;;14.14;62.34;101835.75;4993050;28;20034;-43
2023/04/29 04:02:18;;;;;;;23.40;12.25;;;;;;;14.19;62.23;101840.22;4988116;28;20057;-41
2023/04/29 04:04:44;;;;;;;23.08;12.27;;;;;;;14.05;62.80;101847.00;4982864;28;20038;-41
2023/04/29 04:07:10;;;;;;;24.77;11.93;;;;;;;14.18;62.40;101841.06;4986745;28;20054;-42
2023/04/29 04:09:36;;;;;;;21.15;12.10;;;;;;;14.25;62.31;101849.91;4982869;28;20037;-41
2023/04/29 04:12:01;;;;;;;20.33;12.18;;;;;;;14.25;62.15;101851.63;4985836;28;20034;-41
2023/04/29 04:14:27;;;;;;;21.98;11.88;;;;;;;14.21;62.50;101850.69;4981472;28;20027;-43
2023/04/29 04:16:53;;;;;;;22.90;12.07;;;;;;;14.33;62.26;101850.00;4983223;28;20335;-40
2023/04/29 04:19:19;;;;;;;23.05;11.90;;;;;;;14.33;62.42;101850.91;4986487;28;20035;-42
2023/04/29 04:21:44;;;;;;;26.90;12.73;;;;;;;14.29;62.31;101850.81;4982611;28;20125;-44
2023/04/29 04:24:09;;;;;;;22.02;12.02;;;;;;;14.18;63.26;101854.19;4986339;28;20476;-41
2023/04/29 04:26:35;;;;;;;22.42;12.65;;;;;;;14.10;63.11;101863.66;4982821;28;20164;-39
2023/04/29 04:29:00;;;;;;;21.55;12.82;;;;;;;14.06;63.49;101855.75;4986323;28;20098;-43
2023/04/29 04:31:25;;;;;;;22.23;12.15;;;;;;;14.18;63.52;101869.03;4983250;28;20080;-41
2023/04/29 04:33:51;;;;;;;22.30;12.00;;;;;;;14.28;63.38;101863.03;4987735;28;20034;-40
2023/04/29 04:36:16;;;;;;;24.50;12.95;;;;;;;14.37;63.03;101864.94;4987860;28;20480;-40
2023/04/29 04:38:41;;;;;;;20.00;11.38;;;;;;;14.13;63.77;101868.97;4986580;28;20121;-41
2023/04/29 04:41:07;;;;;;;21.33;11.85;;;;;;;14.29;63.43;101882.28;4989852;28;20033;-41
2023/04/29 04:43:32;;;;;;;22.40;11.77;;;;;;;14.43;63.04;101873.81;4985192;28;20043;-40
2023/04/29 04:45:57;;;;;;;24.38;12.60;;;;;;;14.25;63.30;101884.00;4985628;28;20022;-41
2023/04/29 04:48:23;;;;;;;24.85;12.68;;;;;;;14.26;63.88;101888.41;4982437;28;20061;-43
2023/04/29 04:50:48;;;;;;;28.42;12.68;;;;;;;13.90;64.72;101883.47;4986936;28;20034;-39
2023/04/29 04:53:13;;;;;;;23.10;12.15;;;;;;;14.16;64.35;101895.22;4986443;28;20125;-42
2023/04/29 04:55:39;;;;;;;22.92;12.18;;;;;;;14.37;63.73;101896.41;4983612;28;20083;-41
2023/04/29 04:58:04;;;;;;;23.13;12.45;;;;;;;14.24;64.10;101905.84;4986758;28;20405;-41
2023/04/29 05:00:29;;;;;;;23.48;12.77;;;;;;;14.07;65.04;101907.34;4981515;28;20034;-42
2023/04/29 05:02:55;;;;;;;22.55;12.10;;;;;;;14.13;64.72;101912.66;4985245;28;20117;-41
2023/04/29 05:05:20;;;;;;;22.98;12.13;;;;;;;14.24;64.52;101913.72;4982021;28;20065;-42
2023/04/29 05:07:46;;;;;;;22.00;12.32;;;;;;;14.48;63.59;101921.97;4985050;28;20078;-43
2023/04/29 05:10:11;;;;;;;22.55;12.85;;;;;;;14.32;64.17;101922.59;4984654;28;20177;-40
2023/04/29 05:12:37;;;;;;;29.25;13.40;;;;;;;14.33;64.43;101928.72;4982232;28;20085;-40
2023/04/29 05:15:03;;;;;;;30.85;13.13;;;;;;;14.23;64.75;101928.56;4985588;28;20030;-41
2023/04/29 05:17:28;;;;;;;24.95;13.13;;;;;;;14.48;64.01;101932.47;4981443;28;20026;-42
2023/04/29 05:19:54;;;;;;;26.42;13.07;;;;;;;14.14;64.64;101932.78;4984685;28;20049;-41
2023/04/29 05:22:19;;;;;;;25.55;13.25;;;;;;;14.35;64.42;101940.09;4985541;28;20037;-38
2023/04/29 05:24:47;;;;;;;27.23;13.90;;;;;;;14.28;64.11;101933.88;4981425;28;20057;-45
2023/04/29 05:27:12;;;;;;;27.48;13.85;;;;;;;14.33;64.20;101944.44;4985088;28;20042;-42
2023/04/29 05:29:37;;;;;;;26.98;14.18;;;;;;;14.40;63.65;101939.31;4981377;28;20046;-41
2023/04/29 05:32:03;;;;;;;25.05;13.55;;;;;;;14.33;64.38;101942.72;4985382;28;20037;-43
2023/04/29 05:34:28;;;;;;;28.83;14.30;;;;;;;14.44;64.01;101943.78;4982357;28;20034;-40
2023/04/29 05:36:53;;;;;;;24.17;13.90;;;;;;;14.57;63.88;101947.47;4985396;28;20031;-42
2023/04/29 05:39:19;;;;;;;21.98;13.45;;;;;;;14.39;64.04;101952.44;4986308;28;20049;-41
2023/04/29 05:41:44;;;;;;;26.33;13.93;;;;;;;14.42;63.69;101955.97;4984804;28;20177;-41
2023/04/29 05:44:09;;;;;;;24.77;13.35;;;;;;;14.44;63.66;101951.66;4988881;28;20034;-42
2023/04/29 05:46:35;;;;;;;27.25;13.27;;;;;;;14.53;63.69;101956.13;4986211;28;20413;-41
2023/04/29 05:49:00;;;;;;;25.75;13.90;;;;;;;14.72;63.03;101958.16;4990295;28;20040;-40
2023/04/29 05:51:27;;;;;;;22.42;12.70;;;;;;;14.54;63.34;101964.03;4992670;28;20086;-42
2023/04/29 05:53:52;;;;;;;26.02;13.25;;;;;;;14.61;62.45;101970.25;4996611;28;20031;-40
2023/04/29 05:56:18;;;;;;;21.58;12.18;;;;;;;14.84;61.26;101965.31;4991312;28;20042;-42
2023/04/29 05:58:44;;;;;;;23.15;12.70;;;;;;;14.75;61.20;101967.84;4984328;28;20032;-40
2023/04/29 06:01:10;;;;;;;20.58;12.25;;;;;;;14.87;60.87;101987.25;4986191;28;20544;-40
2023/04/29 06:03:35;;;;;;;24.02;11.88;;;;;;;15.03;60.41;101985.72;4984225;28;20409;-40
2023/04/29 06:06:01;;;;;;;19.55;11.75;;;;;;;15.03;60.62;101991.84;4987597;28;20042;-40
2023/04/29 06:08:26;;;;;;;21.23;11.98;;;;;;;15.07;60.06;101994.50;4982149;28;20524;-41
2023/04/29 06:10:52;;;;;;;19.02;11.40;;;;;;;15.07;59.01;101991.88;4984421;28;20034;-38
2023/04/29 06:13:17;;;;;;;18.98;11.65;;;;;;;15.08;57.36;101991.88;4984334;28;20382;-41
2023/04/29 06:15:43;;;;;;;18.65;11.68;;;;;;;15.31;57.38;101997.41;4980785;28;20053;-41
2023/04/29 06:18:09;;;;;;;17.05;10.85;;;;;;;15.18;56.70;102001.69;4983485;28;20133;-42
2023/04/29 06:20:34;;;;;;;17.27;10.70;;;;;;;15.67;56.60;102007.53;4980345;28;20049;-45
2023/04/29 06:22:59;;;;;;;16.60;11.18;;;;;;;15.62;54.83;102011.81;4983267;28;20046;-44
2023/04/29 06:25:25;;;;;;;17.13;10.73;;;;;;;15.78;54.34;102014.66;4980252;28;20042;-41
2023/04/29 06:27:50;;;;;;;19.30;11.55;;;;;;;15.98;53.07;102009.56;4984689;28;20030;-41
2023/04/29 06:30:15;;;;;;;18.02;11.38;;;;;;;16.22;52.76;102008.91;4983979;28;20400;-41
2023/04/29 06:32:41;;;;;;;22.17;12.40;;;;;;;17.18;50.02;102010.44;4980324;28;20045;-41
2023/04/29 06:35:07;;;;;;;20.35;12.00;;;;;;;18.04;48.45;102007.16;4983064;28;20034;-40
2023/04/29 06:37:32;;;;;;;20.90;12.13;;;;;;;18.63;45.88;102014.19;4979877;28;20137;-43
2023/04/29 06:39:58;;;;;;;23.05;12.68;;;;;;;18.34;47.93;102008.94;4983200;28;20046;-42
2023/04/29 06:42:23;;;;;;;22.92;11.80;;;;;;;18.52;45.56;102016.84;4980423;28;20261;-40
2023/04/29 06:44:48;;;;;;;19.42;11.50;;;;;;;19.60;44.29;102023.56;4984347;28;20061;-42
2023/04/29 06:47:14;;;;;;;18.83;10.68;;;;;;;19.96;43.85;102028.63;4985284;28;20061;-41
2023/04/29 06:49:39;;;;;;;20.70;10.43;;;;;;;20.09;42.56;102032.97;4981167;28;22878;-43
2023/04/29 06:52:05;;;;;;;19.98;10.57;;;;;;;19.10;43.23;102042.25;4983125;28;20038;-46
2023/04/29 06:54:31;;;;;;;20.20;10.73;;;;;;;19.91;43.59;102040.16;4979602;28;20034;-42
2023/04/29 06:56:57;;;;;;;19.05;10.23;;;;;;;20.30;41.65;102044.28;4983369;28;20117;-42
2023/04/29 06:59:22;;;;;;;16.85;9.40;;;;;;;21.45;39.54;102049.31;4980705;28;20038;-39
2023/04/29 07:01:48;;;;;;;19.77;9.60;;;;;;;21.90;38.78;102052.19;4983983;28;20038;-44
2023/04/29 07:04:13;;;;;;;18.27;9.73;;;;;;;21.48;39.65;102058.97;4984506;28;20416;-45
2023/04/29 07:06:39;;;;;;;15.07;8.68;;;;;;;21.71;39.34;102062.22;4981752;28;20500;-44
2023/04/29 07:09:04;;;;;;;15.10;8.35;;;;;;;21.82;39.65;102068.28;4983596;28;20035;-41
2023/04/29 07:11:29;;;;;;;13.85;8.15;;;;;;;21.76;38.77;102065.69;4980333;28;20121;-44
2023/04/29 07:13:55;;;;;;;13.98;8.15;;;;;;;21.16;39.15;102069.13;4983642;28;20026;-43
2023/04/29 07:16:20;;;;;;;13.77;7.32;;;;;;;21.48;40.20;102066.94;4981353;28;20035;-39
2023/04/29 07:18:47;;;;;;;14.90;7.38;;;;;;;21.58;38.88;102071.25;4983852;28;20492;-42
2023/04/29 07:21:12;;;;;;;13.45;7.85;;;;;;;21.76;37.97;102062.16;4983685;28;20066;-45
2023/04/29 07:23:37;;;;;;;15.02;7.93;;;;;;;20.81;40.34;102072.97;4980012;28;20053;-41
2023/04/29 07:26:10;;;;;;;13.02;7.93;;;;;;;20.39;40.09;102071.59;4983312;28;20030;-41
2023/04/29 07:28:36;;;;;;;13.20;7.55;;;;;;;19.75;42.12;102082.59;4980050;28;20031;-41
2023/04/29 07:31:01;;;;;;;16.00;8.07;;;;;;;20.35;40.32;102080.47;4983785;28;20069;-44
2023/04/29 07:33:27;;;;;;;12.80;8.40;;;;;;;20.01;42.29;102087.72;4978266;28;20092;-48
2023/04/29 07:35:53;;;;;;;16.42;8.65;;;;;;;18.90;44.63;102085.50;4983009;28;20030;-42
2023/04/29 07:38:20;;;;;;;14.80;8.13;;;;;;;19.73;42.79;102088.78;4983237;28;20061;-40
2023/04/29 07:40:45;;;;;;;14.73;9.10;;;;;;;18.71;45.69;102098.72;4979740;28;20034;-41
2023/04/29 07:43:11;;;;;;;15.38;8.27;;;;;;;19.85;44.50;102096.66;4982864;28;20031;-41
2023/04/29 07:45:37;;;;;;;19.50;8.85;;;;;;;18.84;45.09;102100.50;4980810;28;20034;-41
2023/04/29 07:48:03;;;;;;;16.48;9.02;;;;;;;18.41;47.36;102103.09;4984022;28;20026;-41
2023/04/29 07:50:28;;;;;;;18.13;8.45;;;;;;;18.86;45.99;102101.34;4980461;28;20038;-40
2023/04/29 07:52:54;;;;;;;15.45;8.38;;;;;;;17.94;48.60;102102.13;4982814;28;20026;-40
2023/04/29 07:55:19;;;;;;;19.02;9.80;;;;;;;17.97;49.60;102107.44;4983847;28;20058;-42
2023/04/29 07:57:45;;;;;;;18.00;8.90;;;;;;;18.21;48.38;102103.06;4979510;28;20034;-40
2023/04/29 08:00:10;;;;;;;16.60;9.38;;;;;;;18.36;46.94;102107.47;4982598;28;20057;-43
2023/04/29 08:02:36;;;;;;;20.40;9.27;;;;;;;18.52;47.34;102106.63;4979502;28;20038;-40
2023/04/29 08:05:02;;;;;;;18.67;8.73;;;;;;;18.62;47.65;102105.78;4982452;28;20042;-41
2023/04/29 08:07:27;;;;;;;16.13;8.60;;;;;;;19.09;46.12;102110.09;4979193;28;20038;-42
2023/04/29 08:09:52;;;;;;;15.05;8.45;;;;;;;19.09;45.42;102102.19;4983542;28;20069;-41
2023/04/29 08:12:18;;;;;;;16.75;9.38;;;;;;;17.76;47.75;102109.09;4984414;28;20042;-41
2023/04/29 08:14:43;;;;;;;13.82;8.85;;;;;;;18.22;47.17;102115.41;4979902;28;20432;-41
2023/04/29 08:17:08;;;;;;;18.23;9.63;;;;;;;17.88;48.38;102115.28;4984451;28;20096;-43
2023/04/29 08:19:34;;;;;;;17.27;9.05;;;;;;;17.50;48.61;102109.88;4980348;28;20038;-41
2023/04/29 08:22:00;;;;;;;17.15;8.70;;;;;;;17.81;48.56;102117.03;4982784;28;20029;-41
2023/04/29 08:24:25;;;;;;;17.40;8.40;;;;;;;17.91;49.21;102110.94;4979718;28;20042;-42
2023/04/29 08:26:51;;;;;;;16.17;8.77;;;;;;;17.30;49.65;102118.56;4982968;28;20404;-41
2023/04/29 08:29:17;;;;;;;16.60;8.43;;;;;;;17.32;49.59;102116.78;4983108;28;21144;-44
2023/04/29 08:31:42;;;;;;;16.70;9.38;;;;;;;17.36;49.93;102112.44;4980118;28;20069;-41
2023/04/29 08:34:07;;;;;;;17.15;8.88;;;;;;;17.50;49.64;102129.22;4982953;28;20023;-42
2023/04/29 08:36:33;;;;;;;15.73;8.45;;;;;;;17.47;48.54;102121.28;4979082;28;20174;-42
2023/04/29 08:38:59;;;;;;;17.90;8.77;;;;;;;17.38;49.53;102132.63;4982424;28;20027;-44
2023/04/29 08:41:24;;;;;;;15.55;8.60;;;;;;;16.62;50.57;102137.38;4977760;28;20038;-42
2023/04/29 08:43:50;;;;;;;15.40;9.10;;;;;;;16.46;50.75;102139.84;4982960;28;20541;-40
2023/04/29 08:46:17;;;;;;;20.50;9.00;;;;;;;16.47;51.20;102138.94;4985964;28;20113;-43
2023/04/29 08:48:43;;;;;;;19.00;9.70;;;;;;;17.14;50.28;102137.75;4983371;28;20517;-39
2023/04/29 08:51:12;;;;;;;15.43;9.27;;;;;;;17.14;48.74;102132.50;4989359;28;20027;-39
2023/04/29 08:53:37;;;;;;;15.15;8.48;;;;;;;17.58;48.71;102138.00;4987440;28;20026;-42
2023/04/29 08:56:10;;;;;;;16.00;9.70;;;;;;;17.87;46.74;102139.94;4988671;28;20034;-44
2023/04/29 08:58:39;;;;;;;15.30;8.93;;;;;;;17.08;48.21;102144.78;4982421;28;20030;-41
2023/04/29 09:01:08;;;;;;;16.02;8.60;;;;;;;17.64;47.14;102147.75;4985905;28;20528;-42
2023/04/29 09:03:43;;;;;;;14.00;8.88;;;;;;;17.58;46.64;102148.56;4982490;28;20080;-42
2023/04/29 09:06:09;;;;;;;16.42;8.52;;;;;;;17.42;48.68;102150.25;4986280;28;20069;-42
2023/04/29 09:08:36;;;;;;;19.55;9.20;;;;;;;17.15;49.52;102146.56;4981824;28;20184;-41
2023/04/29 09:11:02;;;;;;;14.70;9.00;;;;;;;17.97;47.24;102155.81;4987882;28;20559;-43
2023/04/29 09:13:30;;;;;;;20.98;9.05;;;;;;;17.27;49.02;102144.88;4984897;28;20037;-43
2023/04/29 09:15:56;;;;;;;14.82;8.90;;;;;;;17.69;46.74;102151.28;4989617;28;20121;-40
2023/04/29 09:18:50;;;;;;;15.65;9.13;;;;;;;17.86;47.38;102144.34;4982591;28;20157;-37
2023/04/29 09:21:24;;;;;;;15.98;8.55;;;;;;;18.18;47.49;102150.56;4985877;28;20041;-42
2023/04/29 09:23:54;;;;;;;16.80;8.57;;;;;;;18.18;45.78;102154.97;4982175;28;20035;-40
2023/04/29 09:26:21;;;;;;;16.25;8.60;;;;;;;18.12;47.55;102149.66;4988159;28;20069;-41
2023/04/29 09:28:48;;;;;;;14.23;8.80;;;;;;;18.01;47.20;102152.28;4986875;28;20202;-41
2023/04/29 09:31:13;;;;;;;14.50;9.15;;;;;;;17.79;46.54;102161.91;4989085;28;20027;-40
2023/04/29 09:33:49;;;;;;;15.57;9.13;;;;;;;18.07;46.83;102164.63;4985841;28;20187;-41
2023/04/29 09:36:37;;;;;;;16.02;8.75;;;;;;;18.25;45.61;102173.47;4986883;28;20050;-42
2023/04/29 09:39:10;;;;;;;15.95;9.20;;;;;;;17.92;45.75;102162.81;4984101;28;20030;-41
2023/04/29 09:41:37;;;;;;;14.90;9.00;;;;;;;17.98;46.18;102173.41;4982366;28;20034;-40
2023/04/29 09:44:07;;;;;;;13.95;8.45;;;;;;;18.59;45.44;102157.72;4986745;28;20081;-40
2023/04/29 09:46:33;;;;;;;17.10;8.38;;;;;;;19.23;45.04;102160.31;4982921;28;20495;-41
2023/04/29 09:49:00;;;;;;;16.88;8.57;;;;;;;18.64;46.00;102171.81;4987060;28;20034;-41
2023/04/29 09:51:25;;;;;;;17.23;8.70;;;;;;;19.19;44.39;102161.22;4983601;28;20034;-41
2023/04/29 09:53:50;;;;;;;15.10;8.68;;;;;;;17.96;44.88;102166.34;4985049;28;20711;-42
2023/04/29 09:56:16;;;;;;;15.50;8.70;;;;;;;18.31;45.01;102166.44;4978478;28;20141;-41
2023/04/29 09:58:41;;;;;;;15.82;8.80;;;;;;;18.22;46.56;102173.47;4984285;28;20038;-40
2023/04/29 10:01:07;;;;;;;16.92;9.15;;;;;;;18.50;44.39;102170.88;4999537;28;20035;-41
2023/04/29 10:03:37;;;;;;;12.80;8.52;;;;;;;18.69;43.67;102164.78;4980600;28;20030;-41
2023/04/29 10:06:04;;;;;;;13.55;8.18;;;;;;;19.13;43.23;102171.81;4984460;28;20492;-38
2023/04/29 10:08:31;;;;;;;16.55;7.65;;;;;;;18.63;44.71;102178.84;4980331;28;20053;-42
2023/04/29 10:10:59;;;;;;;14.30;8.43;;;;;;;18.93;41.84;102179.75;4983974;28;20027;-41
2023/04/29 10:13:25;;;;;;;15.00;8.48;;;;;;;19.02;42.25;102179.75;4980188;28;20085;-43
2023/04/29 10:16:30;;;;;;;13.75;8.60;;;;;;;18.61;43.79;102180.59;4983991;28;20130;-41
2023/04/29 10:18:59;;;;;;;14.52;8.93;;;;;;;17.93;44.60;102180.41;4983209;28;20460;-43
2023/04/29 10:21:32;;;;;;;14.77;9.20;;;;;;;18.28;45.15;102187.56;4980394;28;20054;-42
2023/04/29 10:23:58;;;;;;;14.35;8.65;;;;;;;18.84;43.52;102185.03;4983565;28;20046;-44
2023/04/29 10:26:27;;;;;;;13.55;8.20;;;;;;;18.68;42.69;102186.78;4980395;28;20027;-41
2023/04/29 10:28:56;;;;;;;13.50;8.38;;;;;;;18.71;43.06;102185.91;4983688;28;20038;-41
2023/04/29 10:31:24;;;;;;;16.25;9.05;;;;;;;18.57;42.84;102185.88;4980399;28;20092;-45
2023/04/29 10:33:52;;;;;;;14.25;8.57;;;;;;;18.85;43.07;102192.06;4983407;28;20501;-45
2023/04/29 10:36:19;;;;;;;14.10;8.32;;;;;;;19.38;41.68;102186.75;4980326;28;20038;-39
2023/04/29 10:38:50;;;;;;;13.68;8.43;;;;;;;19.66;41.32;102182.28;4984028;28;20027;-43
2023/04/29 10:41:24;;;;;;;15.13;7.95;;;;;;;19.69;40.74;102191.09;4980179;28;20096;-43
2023/04/29 10:43:53;;;;;;;12.38;7.95;;;;;;;19.49;41.01;102176.16;4983765;28;20512;-41
2023/04/29 10:46:23;;;;;;;13.63;7.88;;;;;;;20.22;40.23;102174.97;4980462;28;20034;-43
2023/04/29 10:48:54;;;;;;;11.98;8.13;;;;;;;20.19;39.72;102168.81;4983301;28;20035;-41
2023/04/29 10:51:32;;;;;;;15.40;7.80;;;;;;;19.56;41.03;102180.56;4980401;28;20057;-40
2023/04/29 10:54:01;;;;;;;15.25;7.30;;;;;;;19.68;40.52;102175.22;4983322;28;20037;-43
2023/04/29 10:56:39;;;;;;;12.27;7.70;;;;;;;19.24;40.65;102177.94;4982038;28;20529;-45
2023/04/29 10:59:09;;;;;;;13.82;8.30;;;;;;;19.60;40.44;102184.94;4986643;28;20042;-43
2023/04/29 11:01:51;;;;;;;11.95;7.20;;;;;;;20.08;40.98;102173.28;4980245;28;20493;-40
2023/04/29 11:04:19;;;;;;;12.50;8.15;;;;;;;19.51;40.89;102182.34;4979470;28;20034;-43
2023/04/29 11:06:57;;;;;;;12.48;7.50;;;;;;;20.07;40.91;102180.34;4982955;28;20096;-40
2023/04/29 11:09:32;;;;;;;15.48;7.85;;;;;;;19.88;41.20;102181.34;4979014;28;20564;-42
2023/04/29 11:12:02;;;;;;;12.27;7.28;;;;;;;19.60;41.68;102183.19;4982555;28;20038;-41